Time;durP1;ratioP1;P1;durP2;ratioP2;P2;SDS_P1;SDS_P2;PMS_P1;PMS_P2;Temp;Humidity;BMP_temperature;BMP_pressure;BME280_temperature;BME280_humidity;BME280_pressure;Samples;Min_cycle;Max_cycle;Signal;HPM_P1;HPM_P2
2024/01/09 00:02:16;;;;;;;3.97;2.45;;;;;;;-1.77;53.68;103194.66;5253081;28;20047;-75
2024/01/09 00:04:48;;;;;;;5.07;2.70;;;;;;;-1.78;54.68;103218.63;5230608;28;20045;-74
2024/01/09 00:07:20;;;;;;;3.45;2.22;;;;;;;-1.71;56.79;103204.94;5252815;28;20024;-75
2024/01/09 00:09:51;;;;;;;4.65;3.00;;;;;;;-1.84;54.72;103192.91;5251552;28;20051;-74
2024/01/09 00:12:23;;;;;;;4.75;2.83;;;;;;;-1.77;55.44;103212.66;5253904;28;20021;-75
2024/01/09 00:14:55;;;;;;;3.58;2.13;;;;;;;-1.73;53.96;103207.53;5250837;28;20540;-75
2024/01/09 00:17:27;;;;;;;4.68;2.50;;;;;;;-1.73;54.66;103215.22;5256863;28;20078;-74
2024/01/09 00:19:59;;;;;;;4.93;2.78;;;;;;;-1.82;54.95;103196.34;5257075;28;20033;-74
2024/01/09 00:22:31;;;;;;;5.53;2.80;;;;;;;-1.72;54.91;103203.25;5262893;28;20028;-74
2024/01/09 00:25:03;;;;;;;4.25;2.90;;;;;;;-1.83;56.01;103192.91;5258890;28;20466;-74
2024/01/09 00:27:35;;;;;;;4.38;2.55;;;;;;;-1.69;55.14;103187.84;5256807;28;20025;-75
2024/01/09 00:30:08;;;;;;;5.53;2.50;;;;;;;-1.74;54.48;103205.81;5258041;28;20044;-75
2024/01/09 00:32:40;;;;;;;3.67;2.38;;;;;;;-1.72;56.36;103210.94;5256889;28;20040;-75
2024/01/09 00:35:14;;;;;;;3.95;2.50;;;;;;;-1.78;57.11;103206.66;5256351;28;20029;-75
2024/01/09 00:37:46;;;;;;;4.53;2.92;;;;;;;-1.87;56.38;103191.19;5238711;28;20055;-75
2024/01/09 00:40:18;;;;;;;3.67;2.40;;;;;;;-1.85;56.46;103188.63;5258839;28;20032;-75
2024/01/09 00:42:49;;;;;;;6.25;2.78;;;;;;;-1.85;55.78;103199.75;5257818;28;20497;-75
2024/01/09 00:45:21;;;;;;;5.18;2.35;;;;;;;-1.81;55.79;103196.34;5256933;28;20024;-75
2024/01/09 00:47:53;;;;;;;4.15;2.25;;;;;;;-1.85;55.72;103193.78;5258011;28;20108;-75
2024/01/09 00:50:25;;;;;;;4.57;2.42;;;;;;;-1.76;57.06;103201.50;5257682;28;20040;-75
2024/01/09 00:52:57;;;;;;;4.22;2.70;;;;;;;-1.79;58.30;103193.78;5256901;28;20036;-75
2024/01/09 00:55:29;;;;;;;4.22;2.65;;;;;;;-1.77;56.67;103203.22;5254562;28;20048;-75
2024/01/09 00:58:01;;;;;;;4.30;2.35;;;;;;;-1.78;55.68;103195.50;5257669;28;20390;-75
2024/01/09 01:00:33;;;;;;;4.22;2.60;;;;;;;-1.84;56.94;103196.34;5257192;28;20037;-75
2024/01/09 01:03:05;;;;;;;3.67;2.42;;;;;;;-1.86;55.91;103195.47;5258246;28;20024;-75
2024/01/09 01:05:37;;;;;;;5.28;2.65;;;;;;;-1.89;58.67;103180.06;5253845;28;20051;-75
2024/01/09 01:08:08;;;;;;;4.10;2.63;;;;;;;-1.84;57.79;103198.06;5257113;28;20037;-75
2024/01/09 01:10:40;;;;;;;5.35;2.80;;;;;;;-1.84;56.51;103201.47;5257064;28;20051;-75
2024/01/09 01:13:12;;;;;;;4.43;2.30;;;;;;;-1.90;57.40;103204.00;5257265;28;20029;-75
2024/01/09 01:15:45;;;;;;;4.45;2.50;;;;;;;-1.83;55.92;103200.63;5256564;28;20056;-75
2024/01/09 01:18:16;;;;;;;5.20;2.95;;;;;;;-2.23;56.19;103151.63;5255841;28;20032;-75
2024/01/09 01:20:48;;;;;;;4.13;2.42;;;;;;;-1.86;56.16;103202.31;5257100;28;20029;-75
2024/01/09 01:23:20;;;;;;;4.00;2.40;;;;;;;-1.88;55.63;103186.03;5257278;28;20029;-75
2024/01/09 01:25:52;;;;;;;4.28;2.55;;;;;;;-2.03;56.34;103212.50;5256317;28;20359;-75
2024/01/09 01:28:25;;;;;;;3.53;2.22;;;;;;;-1.87;58.23;103204.03;5236468;28;20036;-75
2024/01/09 01:30:57;;;;;;;3.85;2.67;;;;;;;-1.91;59.37;103196.31;5255717;28;20039;-75
2024/01/09 01:33:29;;;;;;;6.43;2.70;;;;;;;-2.00;57.34;103213.38;5255748;28;20029;-75
2024/01/09 01:36:01;;;;;;;3.85;2.38;;;;;;;-1.95;57.70;103215.97;5252991;28;20036;-74
2024/01/09 01:38:33;;;;;;;4.90;2.30;;;;;;;-1.98;56.61;103213.38;5256328;28;20911;-75
2024/01/09 01:41:05;;;;;;;4.45;2.55;;;;;;;-2.05;57.33;103212.47;5256827;28;20043;-74
2024/01/09 01:43:37;;;;;;;4.25;2.28;;;;;;;-2.09;57.79;103199.63;5254937;28;20387;-74
2024/01/09 01:46:09;;;;;;;5.55;2.95;;;;;;;-1.99;57.97;103219.38;5255152;28;20033;-74
2024/01/09 01:48:41;;;;;;;4.43;2.88;;;;;;;-2.05;60.02;103214.19;5254004;28;20025;-75
2024/01/09 01:51:13;;;;;;;4.40;2.53;;;;;;;-2.04;58.12;103208.22;5256410;28;20033;-75
2024/01/09 01:53:45;;;;;;;4.70;2.75;;;;;;;-2.04;58.18;103208.22;5236296;28;20047;-75
2024/01/09 01:56:17;;;;;;;5.15;2.80;;;;;;;-2.14;58.39;103209.88;5237310;28;20656;-74
2024/01/09 01:58:49;;;;;;;4.72;2.28;;;;;;;-2.17;58.17;103211.56;5255550;28;20036;-74
2024/01/09 02:01:22;;;;;;;4.43;2.45;;;;;;;-2.19;57.70;103210.72;5256335;28;20111;-75
2024/01/09 02:03:54;;;;;;;3.93;2.37;;;;;;;-2.17;57.02;103193.59;5254128;28;20471;-74
2024/01/09 02:06:26;;;;;;;3.95;2.13;;;;;;;-2.10;57.72;103210.75;5254661;28;20036;-75
2024/01/09 02:08:58;;;;;;;3.90;2.22;;;;;;;-2.19;59.23;103209.00;5256093;28;20509;-75
2024/01/09 02:11:31;;;;;;;4.13;2.42;;;;;;;-2.19;58.96;103209.00;5254968;28;20049;-75
2024/01/09 02:14:03;;;;;;;2.80;2.00;;;;;;;-2.08;58.42;103201.38;5255726;28;20033;-75
2024/01/09 02:16:35;;;;;;;3.67;2.40;;;;;;;-2.20;60.94;103194.41;5255342;28;20540;-75
2024/01/09 02:19:07;;;;;;;4.13;2.72;;;;;;;-2.28;59.16;103194.38;5254556;28;20037;-74
2024/01/09 02:21:38;;;;;;;4.25;2.38;;;;;;;-2.29;58.27;103202.94;5256501;28;20039;-75
2024/01/09 02:24:10;;;;;;;4.38;2.47;;;;;;;-2.28;60.00;103199.50;5237530;28;20049;-75
2024/01/09 02:26:51;;;;;;;4.82;2.70;;;;;;;-2.17;60.17;103191.88;5238088;28;20036;-74
2024/01/09 02:29:24;;;;;;;4.53;2.30;;;;;;;-2.27;58.78;103193.53;5235635;28;20371;-75
2024/01/09 02:31:56;;;;;;;3.22;2.15;;;;;;;-2.27;58.68;103187.56;5254714;28;20044;-75
2024/01/09 02:34:30;;;;;;;4.40;2.47;;;;;;;-2.32;58.88;103196.91;5254701;28;20504;-75
2024/01/09 02:37:02;;;;;;;4.25;2.55;;;;;;;-2.31;60.17;103189.25;5255806;28;20493;-75
2024/01/09 02:39:34;;;;;;;4.07;2.20;;;;;;;-2.38;59.70;103187.47;5235086;28;20047;-74
2024/01/09 02:42:06;;;;;;;4.35;2.42;;;;;;;-2.42;60.78;103197.69;5253935;28;20440;-74
2024/01/09 02:44:38;;;;;;;4.05;2.47;;;;;;;-2.46;60.77;103189.13;5252443;28;20029;-75
2024/01/09 02:47:10;;;;;;;3.53;2.33;;;;;;;-2.49;61.62;103183.97;5248988;28;20040;-75
2024/01/09 02:49:42;;;;;;;3.70;2.20;;;;;;;-2.44;62.81;103182.28;5236184;28;20041;-75
2024/01/09 02:52:15;;;;;;;4.55;2.90;;;;;;;-2.52;60.83;103176.25;5252463;28;20045;-75
2024/01/09 02:54:47;;;;;;;4.10;2.72;;;;;;;-2.48;62.13;103177.97;5252407;28;20029;-75
2024/01/09 02:57:19;;;;;;;3.67;2.28;;;;;;;-2.49;61.82;103186.53;5258168;28;20039;-74
2024/01/09 02:59:51;;;;;;;4.82;3.03;;;;;;;-2.57;61.21;103167.66;5255787;28;20386;-74
2024/01/09 03:02:22;;;;;;;4.05;2.33;;;;;;;-2.53;62.23;103187.38;5255525;28;20036;-75
2024/01/09 03:04:55;;;;;;;3.90;2.40;;;;;;;-2.54;61.75;103168.56;5253945;28;20035;-75
2024/01/09 03:07:27;;;;;;;4.05;2.53;;;;;;;-2.45;59.94;103176.31;5254640;28;20028;-75
2024/01/09 03:09:59;;;;;;;4.50;2.58;;;;;;;-2.47;61.61;103179.69;5254232;28;20494;-75
2024/01/09 03:12:31;;;;;;;3.37;2.17;;;;;;;-2.41;62.68;103174.63;5254851;28;20059;-75
2024/01/09 03:15:04;;;;;;;3.70;2.53;;;;;;;-2.47;60.62;103175.41;5253563;28;20033;-75
2024/01/09 03:17:36;;;;;;;5.57;2.88;;;;;;;-2.56;61.51;103167.66;5254247;28;20048;-75
2024/01/09 03:20:09;;;;;;;3.95;2.45;;;;;;;-2.56;62.86;103166.81;5255062;28;20061;-75
2024/01/09 03:22:40;;;;;;;3.65;2.17;;;;;;;-2.54;62.69;103173.69;5236196;28;20044;-74
2024/01/09 03:25:12;;;;;;;4.57;2.63;;;;;;;-2.56;61.99;103174.50;5255339;28;20037;-74
2024/01/09 03:27:44;;;;;;;3.88;2.53;;;;;;;-2.57;61.92;103183.91;5253980;28;20082;-74
2024/01/09 03:30:16;;;;;;;4.82;2.65;;;;;;;-2.60;64.54;103165.06;5253754;28;20036;-74
2024/01/09 03:32:48;;;;;;;4.00;2.28;;;;;;;-2.55;62.65;103176.22;5254043;28;20036;-74
2024/01/09 03:35:20;;;;;;;5.80;2.38;;;;;;;-2.52;62.47;103176.25;5254844;28;20415;-74
2024/01/09 03:37:53;;;;;;;3.55;2.38;;;;;;;-2.59;62.83;103170.19;5252391;28;20029;-74
2024/01/09 03:40:24;;;;;;;3.92;2.30;;;;;;;-2.58;63.44;103160.78;5255078;28;20029;-74
2024/01/09 03:42:56;;;;;;;3.97;2.92;;;;;;;-2.62;64.20;103165.03;5254418;28;20035;-74
2024/01/09 03:45:29;;;;;;;4.18;2.67;;;;;;;-2.61;63.66;103171.91;5252959;28;20431;-74
2024/01/09 03:48:01;;;;;;;4.90;2.70;;;;;;;-2.57;63.78;103175.38;5236111;28;20068;-74
2024/01/09 03:50:33;;;;;;;4.88;3.00;;;;;;;-2.64;63.65;103171.03;5253471;28;20033;-74
2024/01/09 03:53:05;;;;;;;5.07;3.28;;;;;;;-2.68;64.08;103170.16;5256344;28;20040;-74
2024/01/09 03:55:37;;;;;;;4.40;2.50;;;;;;;-2.58;65.03;103173.63;5257968;28;20040;-74
2024/01/09 03:58:11;;;;;;;4.38;2.70;;;;;;;-2.68;63.66;103169.28;5258678;28;20033;-74
2024/01/09 04:00:43;;;;;;;3.47;2.33;;;;;;;-2.62;64.82;103171.88;5257516;28;20033;-74
2024/01/09 04:03:14;;;;;;;4.05;2.40;;;;;;;-2.68;64.35;103153.91;5257277;28;20047;-74
2024/01/09 04:05:46;;;;;;;4.07;2.42;;;;;;;-2.55;68.15;103174.50;5258607;28;20648;-74
2024/01/09 04:08:18;;;;;;;4.35;2.65;;;;;;;-2.62;66.07;103159.91;5257251;28;20025;-74
2024/01/09 04:10:50;;;;;;;3.63;2.20;;;;;;;-2.68;65.53;103157.31;5257763;28;20041;-74
2024/01/09 04:13:22;;;;;;;3.72;2.42;;;;;;;-2.72;65.19;103170.97;5258674;28;20494;-74
2024/01/09 04:15:54;;;;;;;4.25;2.72;;;;;;;-2.64;66.51;103166.75;5256800;28;20052;-74
2024/01/09 04:18:26;;;;;;;4.00;2.60;;;;;;;-2.64;67.45;103160.78;5257835;28;20039;-74
2024/01/09 04:20:58;;;;;;;4.63;2.78;;;;;;;-2.66;66.38;103162.44;5256004;28;20029;-74
2024/01/09 04:23:30;;;;;;;4.43;2.53;;;;;;;-2.80;67.07;103145.25;5255157;28;20047;-74
2024/01/09 04:26:02;;;;;;;3.63;2.72;;;;;;;-2.73;67.07;103169.22;5255649;28;20047;-74
2024/01/09 04:28:33;;;;;;;4.10;2.53;;;;;;;-2.85;67.54;103149.47;5255612;28;20039;-74
2024/01/09 04:31:05;;;;;;;4.90;2.70;;;;;;;-2.82;65.58;103166.59;5257547;28;20025;-75
2024/01/09 04:33:37;;;;;;;4.57;2.88;;;;;;;-2.80;65.53;103173.47;5258218;28;20037;-75
2024/01/09 04:36:15;;;;;;;3.97;2.63;;;;;;;-2.67;65.08;103169.28;5254048;28;20060;-75
2024/01/09 04:38:47;;;;;;;4.53;3.03;;;;;;;-2.85;66.40;103161.44;5254745;28;20040;-75
2024/01/09 04:41:19;;;;;;;5.57;2.80;;;;;;;-2.84;65.09;103174.31;5238488;28;20052;-75
2024/01/09 04:43:51;;;;;;;4.03;2.72;;;;;;;-2.82;65.40;103169.19;5257554;28;20048;-75
2024/01/09 04:46:23;;;;;;;5.45;2.85;;;;;;;-2.78;65.87;103170.91;5257316;28;20474;-74
2024/01/09 04:48:55;;;;;;;4.93;2.60;;;;;;;-2.75;67.61;103171.81;5256759;28;20486;-74
2024/01/09 04:51:27;;;;;;;4.25;2.75;;;;;;;-2.86;66.32;103168.28;5256832;28;20029;-74
2024/01/09 04:53:59;;;;;;;5.82;2.80;;;;;;;-2.82;65.83;103177.72;5239149;28;20071;-75
2024/01/09 04:56:31;;;;;;;3.95;2.60;;;;;;;-2.83;66.27;103160.63;5256569;28;20025;-75
2024/01/09 04:59:03;;;;;;;5.35;2.63;;;;;;;-2.80;66.78;103167.50;5257110;28;20033;-74
2024/01/09 05:01:35;;;;;;;4.22;2.70;;;;;;;-2.91;66.40;103164.84;5256811;28;20040;-75
2024/01/09 05:04:07;;;;;;;4.28;2.67;;;;;;;-2.89;67.92;103175.09;5256099;28;20033;-74
2024/01/09 05:06:39;;;;;;;4.38;2.75;;;;;;;-2.88;67.51;103177.66;5257736;28;20047;-74
2024/01/09 05:09:11;;;;;;;3.75;2.28;;;;;;;-3.00;66.40;103157.91;5255936;28;20017;-74
2024/01/09 05:11:43;;;;;;;7.63;3.00;;;;;;;-2.91;65.84;103167.41;5257103;28;20047;-75
2024/01/09 05:14:15;;;;;;;4.50;2.78;;;;;;;-3.00;65.99;103162.16;5257061;28;20028;-75
2024/01/09 05:16:47;;;;;;;15.40;3.42;;;;;;;-3.01;66.03;103163.03;5254683;28;20494;-74
2024/01/09 05:19:18;;;;;;;3.67;2.47;;;;;;;-2.96;67.24;103169.91;5254095;28;20029;-74
2024/01/09 05:21:50;;;;;;;4.32;2.60;;;;;;;-2.91;69.20;103162.28;5256986;28;20059;-74
2024/01/09 05:24:22;;;;;;;5.22;3.30;;;;;;;-2.92;65.95;103167.38;5256938;28;20032;-74
2024/01/09 05:26:54;;;;;;;4.50;2.88;;;;;;;-2.89;66.45;103175.94;5253849;28;20033;-74
2024/01/09 05:29:26;;;;;;;7.65;2.50;;;;;;;-2.93;66.80;103176.78;5256856;28;20036;-74
2024/01/09 05:31:58;;;;;;;4.60;2.90;;;;;;;-2.91;66.83;103179.38;5258578;28;20035;-74
2024/01/09 05:34:30;;;;;;;4.25;2.67;;;;;;;-2.94;66.62;103173.34;5255703;28;20028;-74
2024/01/09 05:37:02;;;;;;;4.88;3.03;;;;;;;-3.03;66.13;103177.53;5256260;28;20456;-75
2024/01/09 05:39:34;;;;;;;4.55;2.83;;;;;;;-3.05;66.34;103159.56;5256545;28;20033;-75
2024/01/09 05:42:06;;;;;;;5.30;3.10;;;;;;;-2.99;66.33;103167.34;5255891;28;20035;-74
2024/01/09 05:44:38;;;;;;;3.83;2.47;;;;;;;-3.04;66.95;103168.97;5256141;28;20486;-75
2024/01/09 05:47:10;;;;;;;3.08;1.83;;;;;;;-2.92;66.11;103167.38;5256433;28;20024;-75
2024/01/09 05:49:42;;;;;;;5.38;3.17;;;;;;;-3.03;66.71;103173.28;5253934;28;20047;-75
2024/01/09 05:52:14;;;;;;;5.43;2.95;;;;;;;-3.06;66.51;103167.25;5250876;28;20061;-75
2024/01/09 05:54:46;;;;;;;6.20;3.28;;;;;;;-3.18;66.61;103157.75;5254531;28;20068;-75
2024/01/09 05:57:18;;;;;;;5.55;3.08;;;;;;;-3.11;66.83;103164.63;5252497;28;20033;-74
2024/01/09 05:59:50;;;;;;;4.32;3.10;;;;;;;-3.03;66.94;103177.53;5253361;28;20044;-75
2024/01/09 06:02:23;;;;;;;4.57;2.95;;;;;;;-3.09;68.73;103168.09;5248892;28;20056;-75
2024/01/09 06:04:54;;;;;;;4.65;3.20;;;;;;;-3.12;66.64;103162.91;5250657;28;20025;-75
2024/01/09 06:07:26;;;;;;;6.53;3.00;;;;;;;-3.07;67.54;103170.66;5253559;28;20025;-75
2024/01/09 06:09:58;;;;;;;4.35;3.00;;;;;;;-3.08;68.10;103166.38;5235990;28;20045;-74
2024/01/09 06:12:30;;;;;;;7.10;3.20;;;;;;;-3.21;67.31;103157.72;5254889;28;20040;-75
2024/01/09 06:15:03;;;;;;;5.47;3.50;;;;;;;-3.13;67.96;103161.22;5253596;28;20043;-75
2024/01/09 06:17:35;;;;;;;4.65;3.20;;;;;;;-3.20;67.24;103165.41;5256772;28;20032;-75
2024/01/09 06:20:07;;;;;;;4.35;2.53;;;;;;;-3.09;67.74;103167.22;5253924;28;20024;-75
2024/01/09 06:22:39;;;;;;;4.57;2.63;;;;;;;-3.11;67.08;103164.63;5236479;28;20037;-75
2024/01/09 06:25:13;;;;;;;4.97;2.88;;;;;;;-3.17;68.32;103164.59;5251862;28;20518;-75
2024/01/09 06:27:45;;;;;;;5.57;3.22;;;;;;;-3.25;68.37;103179.91;5255644;28;20409;-75
2024/01/09 06:30:17;;;;;;;5.65;3.10;;;;;;;-3.21;68.99;103178.22;5256804;28;20025;-74
2024/01/09 06:32:49;;;;;;;4.60;2.97;;;;;;;-3.15;67.97;103178.28;5255543;28;20042;-75
2024/01/09 06:35:21;;;;;;;5.60;3.33;;;;;;;-3.14;68.50;103177.44;5255551;28;20020;-75
2024/01/09 06:37:52;;;;;;;5.63;3.10;;;;;;;-3.17;67.64;103179.97;5255901;28;20037;-75
2024/01/09 06:40:24;;;;;;;5.20;3.45;;;;;;;-3.10;67.92;103193.72;5256989;28;20504;-75
2024/01/09 06:42:56;;;;;;;4.38;2.90;;;;;;;-3.13;69.81;103186.00;5254946;28;20041;-74
2024/01/09 06:45:28;;;;;;;4.28;2.78;;;;;;;-3.17;68.76;103185.09;5255963;28;20025;-77
2024/01/09 06:48:00;;;;;;;4.93;3.40;;;;;;;-3.13;69.95;103193.69;5255803;28;20463;-77
2024/01/09 06:50:32;;;;;;;4.40;2.72;;;;;;;-3.21;69.08;103189.34;5254849;28;20044;-77
2024/01/09 06:53:04;;;;;;;6.13;3.33;;;;;;;-3.23;69.62;103188.44;5255664;28;20032;-77
2024/01/09 06:55:36;;;;;;;6.13;3.95;;;;;;;-3.14;69.18;103197.06;5256017;28;20033;-74
2024/01/09 06:58:08;;;;;;;6.35;3.85;;;;;;;-3.14;69.79;103199.63;5253961;28;20040;-75
2024/01/09 07:00:40;;;;;;;6.38;3.10;;;;;;;-3.14;68.44;103200.53;5229056;28;20032;-74
2024/01/09 07:03:12;;;;;;;6.85;3.58;;;;;;;-3.15;70.12;103188.53;5255660;28;20020;-74
2024/01/09 07:05:45;;;;;;;5.88;3.50;;;;;;;-3.12;70.47;103205.66;5240158;28;20048;-74
2024/01/09 07:08:17;;;;;;;8.68;3.85;;;;;;;-3.14;69.68;103197.06;5255749;28;20029;-74
2024/01/09 07:10:49;;;;;;;5.45;3.47;;;;;;;-3.26;70.83;103185.88;5232446;28;20107;-74
2024/01/09 07:13:21;;;;;;;7.13;3.83;;;;;;;-3.24;70.64;103186.75;5233665;28;20036;-74
2024/01/09 07:15:53;;;;;;;4.70;3.13;;;;;;;-3.20;70.52;103203.88;5233070;28;20029;-74
2024/01/09 07:18:27;;;;;;;6.40;3.53;;;;;;;-3.25;70.25;103205.53;5233153;28;20111;-74
2024/01/09 07:20:59;;;;;;;6.05;3.42;;;;;;;-3.26;69.16;103193.56;5233300;28;20040;-74
2024/01/09 07:23:31;;;;;;;6.63;3.25;;;;;;;-3.22;71.79;103187.63;5232803;28;20379;-74
2024/01/09 07:26:03;;;;;;;6.05;3.97;;;;;;;-3.28;72.85;103204.66;5233383;28;20036;-75
2024/01/09 07:28:34;;;;;;;5.05;3.22;;;;;;;-3.21;73.92;103196.19;5234729;28;20112;-75
2024/01/09 07:31:06;;;;;;;6.72;3.60;;;;;;;-3.27;72.47;103204.66;5230087;28;20049;-75
2024/01/09 07:33:38;;;;;;;7.03;4.32;;;;;;;-3.24;71.12;103204.69;5234931;28;20041;-75
2024/01/09 07:36:10;;;;;;;4.63;3.28;;;;;;;-3.25;70.50;103212.38;5231791;28;20032;-76
2024/01/09 07:38:42;;;;;;;6.20;3.53;;;;;;;-3.25;73.99;103226.03;5232164;28;20041;-75
2024/01/09 07:41:17;;;;;;;5.70;3.80;;;;;;;-3.30;71.66;103227.69;5232261;28;20044;-76
2024/01/09 07:43:49;;;;;;;7.15;4.28;;;;;;;-3.37;73.79;103217.34;5248332;28;20072;-76
2024/01/09 07:46:20;;;;;;;5.68;3.60;;;;;;;-3.28;71.54;103226.00;5231318;28;20029;-76
2024/01/09 07:48:52;;;;;;;6.80;3.65;;;;;;;-3.28;72.34;103237.97;5233722;28;20035;-76
2024/01/09 07:51:24;;;;;;;5.97;3.05;;;;;;;-3.24;71.33;103232.88;5247447;28;20352;-76
2024/01/09 07:53:56;;;;;;;6.07;3.78;;;;;;;-3.17;71.25;103230.41;5232261;28;20226;-76
2024/01/09 07:56:28;;;;;;;5.22;3.45;;;;;;;-3.14;73.22;103232.97;5234773;28;20033;-76
2024/01/09 07:59:00;;;;;;;7.28;4.32;;;;;;;-3.26;70.29;103226.91;5233587;28;20025;-76
2024/01/09 08:01:32;;;;;;;6.70;3.53;;;;;;;-3.17;71.43;103228.69;5234630;28;20048;-76
2024/01/09 08:04:06;;;;;;;5.97;3.72;;;;;;;-3.18;71.08;103239.78;5232964;28;20044;-76
2024/01/09 08:06:38;;;;;;;9.00;4.20;;;;;;;-3.28;71.82;103212.34;5235207;28;20399;-76
2024/01/09 08:09:10;;;;;;;5.85;3.85;;;;;;;-3.17;71.41;103235.53;5235011;28;20033;-76
2024/01/09 08:11:43;;;;;;;6.17;4.00;;;;;;;-3.20;69.49;103233.78;5253011;28;20036;-76
2024/01/09 08:14:14;;;;;;;5.32;3.50;;;;;;;-3.23;69.88;103238.88;5255988;28;20029;-75
2024/01/09 08:16:46;;;;;;;6.63;3.83;;;;;;;-3.24;70.63;103247.41;5253570;28;20035;-75
2024/01/09 08:19:18;;;;;;;5.30;3.45;;;;;;;-3.16;70.89;103250.06;5250680;28;20029;-75
2024/01/09 08:21:50;;;;;;;5.25;3.33;;;;;;;-3.15;69.61;103244.94;5255941;28;20075;-75
2024/01/09 08:24:22;;;;;;;8.52;3.92;;;;;;;-3.16;70.66;103250.06;5253775;28;20036;-75
2024/01/09 08:26:54;;;;;;;7.22;3.63;;;;;;;-3.14;71.21;103248.34;5254279;28;20039;-75
2024/01/09 08:29:27;;;;;;;6.50;4.05;;;;;;;-3.20;71.71;103238.91;5253487;28;20028;-75
2024/01/09 08:31:59;;;;;;;6.07;3.67;;;;;;;-3.10;72.13;103247.56;5254489;28;20037;-75
2024/01/09 08:34:31;;;;;;;6.47;3.97;;;;;;;-3.13;70.26;103253.50;5238238;28;20033;-75
2024/01/09 08:37:03;;;;;;;7.45;4.15;;;;;;;-3.07;73.03;103252.69;5235202;28;20037;-75
2024/01/09 08:39:35;;;;;;;6.78;3.95;;;;;;;-3.06;72.62;103245.03;5255951;28;20414;-75
2024/01/09 08:42:07;;;;;;;8.35;4.40;;;;;;;-3.21;70.66;103240.63;5257642;28;20052;-75
2024/01/09 08:44:39;;;;;;;6.35;4.30;;;;;;;-2.99;71.07;103258.81;5258424;28;20048;-76
2024/01/09 08:47:12;;;;;;;6.90;4.00;;;;;;;-3.10;70.84;103247.56;5256443;28;20041;-75
2024/01/09 08:49:44;;;;;;;6.80;4.35;;;;;;;-3.14;70.38;103246.69;5239752;28;20033;-75
2024/01/09 08:52:21;;;;;;;6.75;4.47;;;;;;;-3.03;72.43;103251.88;5257108;28;20397;-75
2024/01/09 08:54:53;;;;;;;6.57;4.60;;;;;;;-3.09;71.13;103252.69;5255659;28;20029;-75
2024/01/09 08:57:25;;;;;;;5.60;3.63;;;;;;;-2.92;69.68;103255.44;5257081;28;20036;-75
2024/01/09 08:59:57;;;;;;;6.18;3.95;;;;;;;-2.96;67.91;103261.38;5257283;28;20040;-76
2024/01/09 09:02:29;;;;;;;9.05;4.20;;;;;;;-3.04;70.42;103255.31;5258131;28;20032;-75
2024/01/09 09:05:01;;;;;;;6.97;4.15;;;;;;;-3.05;69.95;103261.28;5255705;28;20032;-76
2024/01/09 09:07:33;;;;;;;7.00;4.57;;;;;;;-3.02;69.20;103262.19;5257673;28;20028;-75
2024/01/09 09:10:06;;;;;;;6.93;4.03;;;;;;;-3.00;68.68;103265.59;5257497;28;20041;-76
2024/01/09 09:12:38;;;;;;;6.32;4.05;;;;;;;-2.83;68.32;103265.78;5238869;28;20395;-76
2024/01/09 09:15:10;;;;;;;6.15;3.95;;;;;;;-2.80;68.20;103270.97;5256367;28;20045;-76
2024/01/09 09:17:42;;;;;;;6.13;3.92;;;;;;;-2.77;68.30;103270.09;5257209;28;20549;-76
2024/01/09 09:20:14;;;;;;;7.22;4.43;;;;;;;-2.77;67.63;103273.53;5255613;28;20037;-76
2024/01/09 09:22:46;;;;;;;8.20;4.43;;;;;;;-2.69;69.47;103260.78;5255928;28;20045;-76
2024/01/09 09:25:18;;;;;;;7.00;4.05;;;;;;;-2.77;66.33;103268.41;5253852;28;20061;-76
2024/01/09 09:27:50;;;;;;;7.32;4.32;;;;;;;-2.68;66.76;103264.22;5252693;28;20482;-76
2024/01/09 09:30:22;;;;;;;6.93;4.85;;;;;;;-2.66;65.27;103254.81;5255677;28;20021;-76
2024/01/09 09:32:57;;;;;;;5.88;3.92;;;;;;;-2.59;65.72;103254.88;5246031;28;20048;-76
2024/01/09 09:35:28;;;;;;;7.38;4.80;;;;;;;-2.61;65.46;103255.75;5248935;28;20025;-76
2024/01/09 09:38:00;;;;;;;6.57;4.43;;;;;;;-2.61;65.04;103259.16;5256767;28;20052;-76
2024/01/09 09:40:32;;;;;;;8.98;5.00;;;;;;;-2.59;64.46;103248.91;5256858;28;20047;-76
2024/01/09 09:43:05;;;;;;;6.95;4.18;;;;;;;-2.54;63.31;103254.91;5256027;28;20075;-76
2024/01/09 09:45:38;;;;;;;5.90;3.80;;;;;;;-2.45;63.27;103252.44;5257009;28;20029;-76
2024/01/09 09:48:12;;;;;;;6.05;3.90;;;;;;;-2.48;63.68;103248.13;5254668;28;20088;-76
2024/01/09 09:50:45;;;;;;;6.32;4.18;;;;;;;-2.37;64.40;103248.22;5254128;28;20033;-76
2024/01/09 09:53:18;;;;;;;5.20;3.35;;;;;;;-2.28;62.12;103252.56;5238774;28;20036;-76
2024/01/09 09:55:52;;;;;;;5.70;3.83;;;;;;;-2.38;62.36;103237.97;5256207;28;20029;-76
2024/01/09 09:58:24;;;;;;;7.68;4.50;;;;;;;-2.33;61.93;103244.84;5255749;28;20071;-76
2024/01/09 10:00:56;;;;;;;8.77;4.50;;;;;;;-2.30;62.60;103264.56;5256928;28;20107;-76
2024/01/09 10:03:34;;;;;;;7.00;4.20;;;;;;;-2.17;61.28;103261.22;5238086;28;20494;-76
2024/01/09 10:06:06;;;;;;;6.47;4.00;;;;;;;-2.13;60.14;103251.81;5254392;28;20033;-76
2024/01/09 10:08:38;;;;;;;6.05;4.20;;;;;;;-2.11;62.15;103255.28;5254814;28;20054;-76
2024/01/09 10:11:10;;;;;;;6.43;4.25;;;;;;;-2.18;60.42;103244.09;5255569;28;20060;-76
2024/01/09 10:13:43;;;;;;;7.85;4.07;;;;;;;-2.07;60.36;103245.03;5238317;28;20482;-76
2024/01/09 10:16:15;;;;;;;5.63;3.93;;;;;;;-2.05;59.05;103232.19;5255899;28;20031;-76
2024/01/09 10:18:47;;;;;;;7.72;4.57;;;;;;;-1.94;59.78;103233.09;5254384;28;20040;-76
2024/01/09 10:21:19;;;;;;;6.95;4.03;;;;;;;-1.92;57.58;103236.56;5252996;28;20033;-76
2024/01/09 10:23:54;;;;;;;7.68;4.63;;;;;;;-1.88;58.97;103240.84;5254346;28;20032;-76
2024/01/09 10:26:26;;;;;;;6.97;4.28;;;;;;;-1.92;57.79;103220.28;5253382;28;20029;-76
2024/01/09 10:28:58;;;;;;;5.93;4.30;;;;;;;-1.83;57.59;103241.72;5255710;28;20036;-76
2024/01/09 10:31:31;;;;;;;7.05;4.38;;;;;;;-1.84;57.86;103223.75;5256177;28;20458;-76
2024/01/09 10:34:03;;;;;;;8.40;4.65;;;;;;;-1.64;58.41;103236.69;5256871;28;20036;-76
2024/01/09 10:36:35;;;;;;;8.75;4.93;;;;;;;-1.79;56.73;103212.63;5254128;28;20063;-77
2024/01/09 10:39:09;;;;;;;7.50;4.68;;;;;;;-1.66;57.73;103216.13;5263833;28;20041;-76
2024/01/09 10:41:40;;;;;;;6.55;4.43;;;;;;;-1.56;56.78;103225.56;5262401;28;20453;-77
2024/01/09 10:44:13;;;;;;;7.13;4.20;;;;;;;-1.49;55.99;103209.31;5255338;28;20855;-76
2024/01/09 10:46:45;;;;;;;6.95;4.60;;;;;;;-1.36;55.25;103227.38;5249398;28;20037;-76
2024/01/09 10:49:19;;;;;;;6.85;4.32;;;;;;;-1.29;56.49;103222.25;5254537;28;20013;-76
2024/01/09 10:51:51;;;;;;;6.80;3.90;;;;;;;-1.32;55.88;103219.69;5254943;28;20033;-76
2024/01/09 10:54:25;;;;;;;7.90;4.68;;;;;;;-1.26;54.02;103208.53;5255045;28;20041;-76
2024/01/09 10:57:00;;;;;;;5.35;3.63;;;;;;;-1.18;53.84;103211.13;5255857;28;20037;-76
2024/01/09 10:59:34;;;;;;;6.97;4.05;;;;;;;-1.27;54.66;103189.69;5255055;28;20044;-77
2024/01/09 11:02:13;;;;;;;6.53;4.13;;;;;;;-1.08;54.00;103198.28;5251821;28;20037;-76
2024/01/09 11:04:45;;;;;;;7.63;4.63;;;;;;;-1.16;53.60;103183.69;5254183;28;20033;-77
2024/01/09 11:07:17;;;;;;;7.03;4.35;;;;;;;-1.07;53.20;103181.97;5253498;28;20025;-76
2024/01/09 11:09:50;;;;;;;7.38;4.47;;;;;;;-1.07;53.65;103174.25;5254116;28;20049;-77
2024/01/09 11:12:28;;;;;;;6.18;4.47;;;;;;;-0.87;52.44;103182.03;5255814;28;20032;-77
2024/01/09 11:15:09;;;;;;;8.18;4.22;;;;;;;-0.89;52.16;103175.16;5252627;28;20049;-77
2024/01/09 11:17:45;;;;;;;6.43;4.22;;;;;;;-0.79;52.48;103177.72;5255894;28;20040;-77
2024/01/09 11:20:17;;;;;;;7.55;4.07;;;;;;;-0.81;52.17;103171.72;5253552;28;20040;-76
2024/01/09 11:22:49;;;;;;;5.90;3.85;;;;;;;-0.81;52.44;103165.72;5254433;28;20063;-77
2024/01/09 11:25:24;;;;;;;5.95;4.07;;;;;;;-0.83;51.37;103160.56;5254487;28;20024;-76
2024/01/09 11:27:56;;;;;;;6.13;4.03;;;;;;;-0.71;51.29;103167.44;5254483;28;20120;-76
2024/01/09 11:30:30;;;;;;;6.97;4.10;;;;;;;-0.60;51.67;103170.00;5252804;28;20033;-76
2024/01/09 11:33:32;;;;;;;7.53;4.05;;;;;;;-0.34;49.58;103163.09;5247284;28;20029;-76
2024/01/09 11:36:07;;;;;;;7.32;3.95;;;;;;;-0.36;49.86;103164.81;5250522;28;20394;-76
2024/01/09 11:38:39;;;;;;;6.97;4.22;;;;;;;-0.58;49.14;103139.94;5260053;28;20032;-76
2024/01/09 11:41:11;;;;;;;7.05;4.05;;;;;;;-0.47;49.83;103152.81;5255772;28;20398;-76
2024/01/09 11:44:04;;;;;;;6.15;3.90;;;;;;;-0.28;49.71;103141.59;5256058;28;20029;-76
2024/01/09 11:46:39;;;;;;;6.63;3.97;;;;;;;-0.40;48.61;103134.78;5251046;28;20047;-76
2024/01/09 11:49:10;;;;;;;5.00;3.45;;;;;;;-0.48;47.74;103139.09;5254548;28;20032;-77